Time;durP1;ratioP1;P1;durP2;ratioP2;P2;SDS_P1;SDS_P2;PMS_P1;PMS_P2;Temp;Humidity;BMP_temperature;BMP_pressure;BME280_temperature;BME280_humidity;BME280_pressure;Samples;Min_cycle;Max_cycle;Signal;HPM_P1;HPM_P2
2022/08/29 00:00:18;;;;;;;4.82;3.15;;;;;;;16.39;66.52;101944.31;3593889;39;20374;-64
2022/08/29 00:02:50;;;;;;;7.55;3.03;;;;;;;16.39;66.88;101944.31;3593832;39;20361;-63
2022/08/29 00:05:19;;;;;;;6.43;4.00;;;;;;;16.37;66.69;101943.56;3594032;39;20047;-63
2022/08/29 00:07:44;;;;;;;9.23;3.72;;;;;;;16.35;66.89;101945.50;3592965;39;20056;-64
2022/08/29 00:10:12;;;;;;;10.02;3.78;;;;;;;16.31;67.31;101941.25;3582067;40;20259;-64
2022/08/29 00:12:37;;;;;;;8.55;3.67;;;;;;;16.25;67.13;101941.69;3582277;40;20392;-64
2022/08/29 00:15:07;;;;;;;6.78;3.75;;;;;;;16.25;67.49;101938.97;3595291;39;20051;-64
2022/08/29 00:17:34;;;;;;;9.45;4.40;;;;;;;15.93;67.41;101887.75;3592527;39;20074;-64
2022/08/29 00:20:00;;;;;;;9.63;4.18;;;;;;;16.22;67.21;101942.75;3592827;39;20088;-64
2022/08/29 00:22:25;;;;;;;8.35;4.15;;;;;;;16.20;68.01;101938.41;3593139;39;20063;-64
2022/08/29 00:24:51;;;;;;;9.85;4.70;;;;;;;16.17;67.23;101939.47;3594758;39;20421;-64
2022/08/29 00:27:17;;;;;;;11.20;5.40;;;;;;;16.12;68.01;101935.34;3590707;39;20064;-64
2022/08/29 00:29:42;;;;;;;8.05;4.72;;;;;;;16.14;67.70;101939.72;3591225;39;20056;-64
2022/08/29 00:32:08;;;;;;;6.47;4.78;;;;;;;16.05;67.73;101923.16;3590172;39;20056;-64
2022/08/29 00:34:34;;;;;;;10.65;5.20;;;;;;;16.10;67.90;101934.56;3591632;39;20127;-64
2022/08/29 00:37:00;;;;;;;10.35;5.65;;;;;;;16.06;67.87;101936.63;3590499;39;20402;-64
2022/08/29 00:39:25;;;;;;;6.95;4.97;;;;;;;16.04;67.71;101937.69;3590963;39;20070;-64
2022/08/29 00:41:51;;;;;;;9.70;5.70;;;;;;;16.02;67.76;101935.97;3590510;39;20354;-64
2022/08/29 00:44:16;;;;;;;12.77;5.90;;;;;;;16.01;68.42;101938.75;3593006;39;20059;-64
2022/08/29 00:46:45;;;;;;;10.43;5.60;;;;;;;16.01;68.38;101945.06;3593607;39;20095;-66
2022/08/29 00:49:18;;;;;;;12.07;5.50;;;;;;;15.31;68.31;101830.44;3592906;39;20086;-64
2022/08/29 00:51:46;;;;;;;14.47;6.27;;;;;;;15.94;68.30;101942.88;3592938;39;20416;-63
2022/08/29 00:54:14;;;;;;;13.35;7.18;;;;;;;15.66;68.49;101905.84;3589271;39;20052;-63
2022/08/29 00:56:42;;;;;;;12.55;6.55;;;;;;;15.84;69.20;101941.75;3595327;39;20125;-63
2022/08/29 00:59:15;;;;;;;10.23;6.22;;;;;;;15.76;69.52;101945.84;3592272;39;20373;-63
2022/08/29 01:01:43;;;;;;;13.43;6.57;;;;;;;15.70;69.05;101946.25;3595127;39;20055;-63
2022/08/29 01:04:10;;;;;;;13.32;6.85;;;;;;;15.68;69.17;101948.16;3590474;39;20051;-65
2022/08/29 01:06:39;;;;;;;13.02;7.00;;;;;;;15.67;68.87;101942.88;3590951;39;20054;-65
2022/08/29 01:09:08;;;;;;;16.60;8.23;;;;;;;15.44;69.85;101911.78;3593624;39;20047;-65
2022/08/29 01:14:24;;;;;;;11.48;6.93;;;;;;;15.56;69.82;101947.09;3589838;39;20133;-63
2022/08/29 01:16:56;;;;;;;15.02;7.45;;;;;;;15.55;69.94;101949.91;3590989;39;20103;-63
2022/08/29 01:19:40;;;;;;;13.23;8.18;;;;;;;15.51;69.44;101951.09;3590605;39;20060;-63
2022/08/29 01:22:05;;;;;;;13.25;7.88;;;;;;;15.51;69.41;101951.97;3591467;39;20058;-62
2022/08/29 01:24:49;;;;;;;17.30;8.77;;;;;;;15.48;69.89;101957.56;3590577;39;20056;-63
2022/08/29 01:27:23;;;;;;;;;;;;;;;15.43;69.91;101943.44;3591558;39;20035;-63
2022/08/29 01:29:49;;;;;;;17.52;8.18;;;;;;;15.46;69.83;101948.66;3588830;39;19936;-63
2022/08/29 01:32:15;;;;;;;17.70;8.55;;;;;;;15.44;70.10;101947.00;3589308;39;20054;-63
2022/08/29 01:34:42;;;;;;;15.82;8.50;;;;;;;15.41;70.54;101945.38;3589981;39;20083;-62
2022/08/29 01:37:12;;;;;;;14.10;8.35;;;;;;;15.15;70.36;101905.53;3593259;39;20047;-62
2022/08/29 01:39:42;;;;;;;15.82;8.15;;;;;;;15.33;70.38;101928.75;3588882;39;20500;-63
2022/08/29 01:42:19;;;;;;;14.82;8.45;;;;;;;15.29;70.70;101924.50;3588220;39;20052;-63
2022/08/29 01:44:56;;;;;;;13.90;8.23;;;;;;;15.21;70.79;101921.41;3594512;39;20121;-63
2022/08/29 01:47:26;;;;;;;17.23;8.80;;;;;;;15.11;71.55;101925.66;3591872;39;20124;-63
2022/08/29 01:49:52;;;;;;;13.50;8.48;;;;;;;15.16;71.35;101935.25;3592578;39;20063;-65
2022/08/29 01:52:18;;;;;;;16.67;8.45;;;;;;;15.18;71.31;101944.13;3591953;39;20047;-63
2022/08/29 01:54:46;;;;;;;15.32;8.55;;;;;;;15.19;71.35;101929.66;3588925;39;20056;-63
2022/08/29 01:57:14;;;;;;;14.75;8.55;;;;;;;15.18;71.65;101933.28;3590655;39;20055;-63
2022/08/29 01:59:42;;;;;;;13.82;9.00;;;;;;;15.16;71.96;101937.06;3587998;39;20083;-62
2022/08/29 02:02:22;;;;;;;15.75;8.70;;;;;;;15.16;71.89;101939.78;3589299;39;20064;-62
2022/08/29 02:04:48;;;;;;;14.23;8.60;;;;;;;15.17;71.84;101947.81;3588657;39;20253;-63
2022/08/29 02:07:23;;;;;;;12.07;8.25;;;;;;;15.17;71.87;101946.94;3588732;39;20052;-63
2022/08/29 02:09:50;;;;;;;16.83;9.63;;;;;;;15.16;71.61;101951.50;3587882;39;20129;-65
2022/08/29 02:12:17;;;;;;;17.13;9.13;;;;;;;15.14;71.85;101941.72;3586914;39;20052;-63
2022/08/29 02:14:43;;;;;;;17.75;9.82;;;;;;;15.09;71.85;101937.44;3585172;39;20397;-63
2022/08/29 02:17:10;;;;;;;18.35;10.23;;;;;;;15.05;71.92;101935.91;3590212;39;20419;-62
2022/08/29 02:19:37;;;;;;;17.80;9.98;;;;;;;15.03;72.79;101940.56;3593784;39;20417;-63
2022/08/29 02:22:05;;;;;;;16.45;9.90;;;;;;;15.03;72.04;101955.94;3589361;39;20308;-63
2022/08/29 02:24:31;;;;;;;16.13;10.32;;;;;;;15.04;71.92;101952.28;3589761;39;20061;-63
2022/08/29 02:26:58;;;;;;;18.77;10.23;;;;;;;15.06;72.06;101951.22;3589882;39;20060;-63
2022/08/29 02:29:26;;;;;;;19.38;12.10;;;;;;;15.06;71.87;101956.63;3591702;39;20056;-63
2022/08/29 02:31:52;;;;;;;17.30;11.15;;;;;;;14.94;71.91;101930.31;3589231;39;20062;-63
2022/08/29 02:34:18;;;;;;;18.55;11.55;;;;;;;15.01;72.36;101949.75;3590940;39;20055;-63
2022/08/29 02:36:43;;;;;;;23.23;11.80;;;;;;;14.99;72.12;101954.38;3590302;39;20055;-62
2022/08/29 02:39:09;;;;;;;18.65;12.02;;;;;;;14.99;72.23;101960.66;3590833;39;20067;-63
2022/08/29 02:41:35;;;;;;;21.08;12.07;;;;;;;14.83;72.09;101921.97;3590788;39;20069;-63
2022/08/29 02:44:02;;;;;;;21.38;12.60;;;;;;;14.98;72.52;101953.53;3590411;39;20060;-63
2022/08/29 02:46:27;;;;;;;23.50;12.68;;;;;;;14.98;72.44;101958.94;3591457;39;20056;-64
2022/08/29 02:48:54;;;;;;;21.88;12.70;;;;;;;14.93;72.27;101949.34;3590243;39;20054;-63
2022/08/29 02:51:26;;;;;;;23.65;12.52;;;;;;;15.00;72.27;101954.31;3590939;39;20063;-64
2022/08/29 02:53:54;;;;;;;21.17;12.47;;;;;;;14.97;72.39;101959.00;3589392;39;20094;-63
2022/08/29 02:56:20;;;;;;;19.92;13.05;;;;;;;14.95;72.67;101964.53;3591086;39;20365;-63
2022/08/29 02:58:48;;;;;;;20.67;13.10;;;;;;;14.67;72.75;101911.22;3590178;39;20114;-64
2022/08/29 03:01:14;;;;;;;24.10;12.88;;;;;;;14.96;72.63;101962.69;3590513;39;20080;-63
2022/08/29 03:03:39;;;;;;;20.05;12.68;;;;;;;14.94;72.77;101962.81;3589911;39;20051;-64
2022/08/29 03:06:05;;;;;;;20.88;11.80;;;;;;;14.89;72.68;101951.38;3591681;39;20064;-64
2022/08/29 03:08:31;;;;;;;20.77;12.15;;;;;;;14.97;72.49;101957.19;3589565;39;20349;-64
2022/08/29 03:10:57;;;;;;;19.23;11.68;;;;;;;14.95;72.63;101956.41;3590141;39;20137;-64
2022/08/29 03:13:23;;;;;;;20.77;12.55;;;;;;;14.97;72.37;101956.31;3591063;39;20048;-64
2022/08/29 03:15:49;;;;;;;20.05;11.85;;;;;;;14.98;72.70;101963.47;3589987;39;20051;-65
2022/08/29 03:18:15;;;;;;;19.23;11.93;;;;;;;14.99;72.66;101959.81;3592501;39;20418;-64
2022/08/29 03:20:41;;;;;;;18.10;11.50;;;;;;;14.89;72.58;101945.97;3590807;39;20317;-63
2022/08/29 03:23:08;;;;;;;19.67;11.93;;;;;;;14.84;72.56;101935.44;3589470;39;20050;-64
2022/08/29 03:25:34;;;;;;;16.40;11.30;;;;;;;14.93;72.94;101946.63;3591519;39;20047;-64
2022/08/29 03:28:01;;;;;;;19.67;11.05;;;;;;;14.89;73.40;101947.81;3588531;39;20060;-64
2022/08/29 03:30:29;;;;;;;19.73;11.10;;;;;;;14.87;73.35;101939.75;3590605;39;20387;-64
2022/08/29 03:32:56;;;;;;;20.08;11.38;;;;;;;14.84;73.29;101945.38;3587894;39;20068;-64
2022/08/29 03:35:23;;;;;;;16.00;10.95;;;;;;;14.70;72.94;101926.41;3587199;39;20086;-64
2022/08/29 03:37:50;;;;;;;20.77;11.27;;;;;;;14.80;73.45;101938.41;3590411;39;20048;-64
2022/08/29 03:40:17;;;;;;;19.17;11.50;;;;;;;14.80;73.29;101938.41;3590077;39;20063;-63
2022/08/29 03:42:43;;;;;;;18.42;11.20;;;;;;;14.80;73.14;101933.00;3587801;39;20048;-64
2022/08/29 03:45:13;;;;;;;18.15;11.85;;;;;;;14.58;73.31;101909.09;3589971;39;20152;-64
2022/08/29 03:47:40;;;;;;;18.77;11.00;;;;;;;14.74;73.76;101912.59;3588512;39;20055;-64
2022/08/29 03:50:07;;;;;;;18.95;11.30;;;;;;;14.72;73.62;101908.25;3588337;39;20460;-64
2022/08/29 03:52:33;;;;;;;21.27;11.90;;;;;;;14.70;73.53;101916.47;3589436;39;20087;-63
2022/08/29 03:54:59;;;;;;;19.40;11.43;;;;;;;14.69;73.67;101919.28;3577950;39;20065;-64
2022/08/29 03:57:26;;;;;;;21.85;11.95;;;;;;;14.70;73.54;101915.59;3582539;40;20064;-62
2022/08/29 03:59:52;;;;;;;22.42;11.80;;;;;;;14.67;73.28;101913.06;3575465;39;20043;-62
2022/08/29 04:02:17;;;;;;;21.75;12.30;;;;;;;14.65;73.67;101915.00;3589163;39;20137;-61
2022/08/29 04:07:28;;;;;;;19.52;12.32;;;;;;;14.63;73.41;101905.16;3588305;39;20121;-63
2022/08/29 04:09:54;;;;;;;29.55;13.35;;;;;;;14.63;73.39;101905.16;3594104;39;20060;-63
2022/08/29 04:12:20;;;;;;;27.10;13.18;;;;;;;14.64;72.94;101911.41;3590577;39;20314;-63
2022/08/29 04:14:45;;;;;;;25.52;13.95;;;;;;;14.66;73.42;101908.63;3587535;39;20048;-63
2022/08/29 04:17:11;;;;;;;23.73;13.35;;;;;;;14.67;72.56;101922.06;3588052;39;20058;-63
2022/08/29 04:19:37;;;;;;;24.48;13.55;;;;;;;14.49;72.95;101891.53;3590314;39;20063;-64
2022/08/29 04:22:04;;;;;;;22.10;13.70;;;;;;;14.67;73.27;101921.19;3587005;39;20376;-63
2022/08/29 04:24:34;;;;;;;22.23;13.30;;;;;;;14.67;73.27;101929.31;3588132;39;20394;-63
2022/08/29 04:27:00;;;;;;;20.30;12.48;;;;;;;14.63;72.90;101929.50;3587562;39;20080;-63
2022/08/29 04:29:26;;;;;;;22.27;12.57;;;;;;;14.61;73.02;101933.25;3590996;39;20067;-60
2022/08/29 04:31:52;;;;;;;19.40;12.38;;;;;;;14.57;73.09;101929.88;3588519;39;20087;-61
2022/08/29 04:34:19;;;;;;;21.90;13.00;;;;;;;14.54;73.29;101932.75;3589484;39;20066;-61
2022/08/29 04:36:46;;;;;;;21.85;12.25;;;;;;;14.56;73.75;101938.97;3591445;39;20467;-61
2022/08/29 04:39:13;;;;;;;21.42;13.00;;;;;;;14.54;73.71;101932.75;3588868;39;20274;-61
2022/08/29 04:41:39;;;;;;;21.40;13.70;;;;;;;14.49;73.44;101918.59;3590704;39;20089;-61
2022/08/29 04:44:07;;;;;;;19.30;12.45;;;;;;;14.58;73.77;101938.84;3589757;39;20065;-61
2022/08/29 04:46:33;;;;;;;20.25;11.88;;;;;;;14.55;73.68;101939.91;3590762;39;20048;-62
2022/08/29 04:48:59;;;;;;;19.33;10.63;;;;;;;14.55;73.65;101936.34;3589862;39;20071;-61
2022/08/29 04:51:25;;;;;;;17.27;10.07;;;;;;;14.56;74.11;101943.50;3589812;39;20127;-62
2022/08/29 04:53:52;;;;;;;18.75;10.10;;;;;;;14.55;73.95;101945.31;3589257;39;20044;-62
2022/08/29 04:56:19;;;;;;;14.88;9.73;;;;;;;14.57;73.83;101940.69;3588578;39;20298;-61
2022/08/29 04:58:46;;;;;;;15.65;10.38;;;;;;;14.58;73.73;101949.69;3587841;39;20342;-61
2022/08/29 05:01:16;;;;;;;16.40;10.02;;;;;;;14.59;73.17;101946.91;3587309;39;20058;-62
2022/08/29 05:03:42;;;;;;;16.23;9.52;;;;;;;14.59;73.32;101941.47;3589127;39;20046;-61
2022/08/29 05:06:11;;;;;;;19.00;10.45;;;;;;;14.59;73.19;101948.75;3589449;39;20076;-62
2022/08/29 05:08:41;;;;;;;18.67;9.85;;;;;;;14.53;73.45;101939.16;3588421;39;20068;-61
2022/08/29 05:11:14;;;;;;;20.27;9.60;;;;;;;14.30;73.81;101893.63;3586465;39;20063;-61
2022/08/29 05:13:39;;;;;;;18.55;9.90;;;;;;;14.57;73.89;101937.13;3588051;39;20271;-61
2022/08/29 05:16:09;;;;;;;16.98;9.18;;;;;;;14.57;73.70;101935.28;3586174;39;20060;-61
2022/08/29 05:18:35;;;;;;;19.38;9.35;;;;;;;14.62;73.40;101951.25;3588331;39;20068;-62
2022/08/29 05:21:00;;;;;;;15.55;9.15;;;;;;;14.66;73.44;101951.94;3590612;39;20059;-62
2022/08/29 05:23:26;;;;;;;14.27;8.80;;;;;;;14.66;73.45;101943.81;3587858;39;20074;-62
2022/08/29 05:25:59;;;;;;;12.52;8.82;;;;;;;14.71;73.32;101960.63;3587908;39;20056;-61
2022/08/29 05:28:27;;;;;;;12.15;8.52;;;;;;;14.70;73.02;101973.28;3589942;39;20056;-62
2022/08/29 05:30:54;;;;;;;12.57;8.15;;;;;;;14.73;73.35;101974.94;3585917;39;20052;-62
2022/08/29 05:33:20;;;;;;;15.82;7.45;;;;;;;14.69;72.67;101954.47;3589331;39;20062;-63
2022/08/29 05:35:46;;;;;;;14.50;7.38;;;;;;;14.65;72.94;101944.75;3589025;39;20059;-63
2022/08/29 05:38:13;;;;;;;13.15;6.90;;;;;;;14.84;72.47;101977.84;3591470;39;20056;-63
2022/08/29 05:40:40;;;;;;;13.55;7.68;;;;;;;14.88;73.01;101971.31;3593484;39;20040;-63
2022/08/29 05:43:09;;;;;;;12.48;7.00;;;;;;;14.90;72.38;101972.06;3590312;39;20375;-63
2022/08/29 05:45:37;;;;;;;11.25;6.90;;;;;;;14.94;72.15;101978.16;3590741;39;20048;-63
2022/08/29 05:48:06;;;;;;;9.20;6.30;;;;;;;14.98;72.41;101980.59;3588904;39;20095;-63
2022/08/29 05:50:42;;;;;;;9.52;6.38;;;;;;;15.03;72.70;101974.88;3589280;39;20287;-63
2022/08/29 05:53:11;;;;;;;10.02;6.18;;;;;;;15.09;72.22;101977.22;3588489;39;20051;-62
2022/08/29 05:55:42;;;;;;;9.50;6.55;;;;;;;15.15;72.51;101978.66;3589185;39;20100;-63
2022/08/29 05:58:09;;;;;;;14.20;6.55;;;;;;;15.23;71.55;101977.22;3591159;39;20078;-63
2022/08/29 06:00:42;;;;;;;13.32;6.70;;;;;;;15.27;71.53;101978.75;3592230;39;20051;-63
2022/08/29 06:03:10;;;;;;;9.38;6.03;;;;;;;15.25;71.02;101966.28;3591789;39;20382;-63
2022/08/29 06:05:36;;;;;;;10.95;6.50;;;;;;;15.39;71.17;101987.09;3592398;39;20056;-63
2022/08/29 06:08:03;;;;;;;11.23;6.15;;;;;;;15.46;70.20;101992.03;3589100;39;20091;-62
2022/08/29 06:10:29;;;;;;;8.13;5.90;;;;;;;15.50;69.79;101990.84;3592628;39;20412;-62
2022/08/29 06:12:55;;;;;;;8.98;5.97;;;;;;;15.55;69.42;101990.56;3593884;39;20418;-62
2022/08/29 06:15:21;;;;;;;10.13;6.18;;;;;;;15.56;69.96;101985.03;3591560;39;20063;-62
2022/08/29 06:17:48;;;;;;;7.82;5.68;;;;;;;15.63;69.46;101992.78;3583881;39;20049;-62
2022/08/29 06:20:14;;;;;;;12.80;6.65;;;;;;;15.65;69.49;101993.56;3589926;39;20333;-62
2022/08/29 06:22:40;;;;;;;11.25;6.28;;;;;;;15.66;69.38;101987.16;3590940;39;20234;-61
2022/08/29 06:25:07;;;;;;;7.63;5.95;;;;;;;15.73;69.05;101996.66;3589887;39;20100;-62
2022/08/29 06:27:32;;;;;;;10.88;6.15;;;;;;;15.77;69.05;102004.50;3590267;39;20058;-61
2022/08/29 06:29:58;;;;;;;8.98;5.50;;;;;;;15.84;68.92;101994.13;3578271;39;20059;-62
2022/08/29 06:32:24;;;;;;;13.27;6.07;;;;;;;15.58;68.66;101943.44;3592307;39;20095;-64
2022/08/29 06:34:49;;;;;;;10.13;5.55;;;;;;;15.96;67.81;102001.47;3588990;39;20197;-62
2022/08/29 06:37:15;;;;;;;12.05;6.18;;;;;;;16.00;67.72;102007.56;3590703;39;20055;-64
2022/08/29 06:39:41;;;;;;;10.88;5.90;;;;;;;16.04;67.33;102008.22;3591691;39;20044;-62
2022/08/29 06:42:07;;;;;;;14.60;6.47;;;;;;;15.95;66.46;101988.88;3591160;39;20056;-62
2022/08/29 06:44:33;;;;;;;12.40;6.38;;;;;;;16.15;67.08;102016.53;3588523;39;20113;-62
2022/08/29 06:47:00;;;;;;;9.90;6.00;;;;;;;15.97;66.47;101978.78;3591515;39;20069;-62
2022/08/29 06:49:26;;;;;;;10.73;5.93;;;;;;;16.26;65.74;102019.38;3588543;39;20048;-61
2022/08/29 06:51:53;;;;;;;11.05;5.40;;;;;;;16.32;65.39;102023.53;3589214;39;20441;-62
2022/08/29 06:54:22;;;;;;;10.48;6.00;;;;;;;16.40;64.59;102021.19;3582109;40;20050;-62
2022/08/29 06:56:49;;;;;;;9.60;5.88;;;;;;;16.40;64.86;102016.63;3588179;39;20067;-62
2022/08/29 06:59:17;;;;;;;13.93;6.88;;;;;;;16.29;64.54;101972.19;3593020;39;20043;-61
2022/08/29 07:01:46;;;;;;;11.07;5.72;;;;;;;16.70;64.21;102007.34;3590676;39;20059;-62
2022/08/29 07:04:13;;;;;;;10.43;5.72;;;;;;;16.86;63.93;102018.94;3590682;39;20052;-61
2022/08/29 07:06:41;;;;;;;11.68;5.90;;;;;;;17.02;63.33;102026.00;3590074;39;20048;-62
2022/08/29 07:09:07;;;;;;;10.27;5.65;;;;;;;17.19;62.06;102025.72;3590540;39;20071;-62
2022/08/29 07:11:35;;;;;;;10.52;5.68;;;;;;;17.49;61.22;102016.34;3588913;39;20385;-62
2022/08/29 07:14:03;;;;;;;9.45;5.22;;;;;;;17.78;60.15;102001.50;3590355;39;20071;-62
2022/08/29 07:16:31;;;;;;;13.85;5.20;;;;;;;18.15;59.12;102015.13;3590416;39;20141;-62
2022/08/29 07:18:57;;;;;;;9.98;5.63;;;;;;;18.46;58.70;102012.81;3591056;39;20065;-62
2022/08/29 07:21:25;;;;;;;12.13;5.32;;;;;;;18.76;56.37;102015.91;3590740;39;20063;-62
2022/08/29 07:23:54;;;;;;;9.20;5.05;;;;;;;18.97;55.43;101986.13;3590543;39;20417;-62
2022/08/29 07:26:27;;;;;;;10.27;5.43;;;;;;;19.45;52.76;102012.31;3582571;39;20118;-62
2022/08/29 07:28:58;;;;;;;7.25;4.50;;;;;;;19.74;52.39;102011.84;3587513;39;20411;-62
2022/08/29 07:31:23;;;;;;;7.72;4.57;;;;;;;20.00;51.52;102009.69;3580523;39;20074;-64
2022/08/29 07:33:49;;;;;;;7.22;4.38;;;;;;;20.30;50.38;102009.00;3588147;39;20324;-62
2022/08/29 07:36:15;;;;;;;7.40;4.22;;;;;;;20.51;48.83;102006.31;3587075;39;20044;-62
2022/08/29 07:38:40;;;;;;;6.95;3.90;;;;;;;20.58;46.94;101999.34;3582576;39;20425;-62
2022/08/29 07:41:10;;;;;;;12.07;4.10;;;;;;;20.67;46.69;101986.75;3591216;39;20374;-62
2022/08/29 07:43:36;;;;;;;5.15;3.25;;;;;;;20.73;46.71;101988.97;3589379;39;20078;-62
2022/08/29 07:46:07;;;;;;;11.75;3.63;;;;;;;20.85;46.69;101998.84;3589583;39;20076;-62
2022/08/29 07:48:34;;;;;;;5.95;3.10;;;;;;;20.94;45.71;102003.50;3588847;39;20139;-63
2022/08/29 07:51:00;;;;;;;7.75;3.63;;;;;;;20.82;45.88;101960.84;3588717;39;20044;-64
2022/08/29 07:53:25;;;;;;;5.47;2.88;;;;;;;21.05;45.10;102011.63;3590823;39;20055;-63
2022/08/29 07:55:51;;;;;;;6.82;3.60;;;;;;;20.91;45.15;102006.50;3588904;39;20092;-63
2022/08/29 07:58:17;;;;;;;5.97;3.33;;;;;;;21.00;46.02;102013.91;3587955;39;20506;-63
2022/08/29 08:00:42;;;;;;;5.43;3.30;;;;;;;20.78;44.00;101959.38;3588886;39;20070;-62
2022/08/29 08:03:09;;;;;;;8.52;3.53;;;;;;;21.15;43.93;102005.34;3581765;40;20136;-63
2022/08/29 08:05:36;;;;;;;8.25;3.88;;;;;;;20.81;45.22;101948.19;3587994;39;20068;-62
2022/08/29 08:08:02;;;;;;;6.72;2.80;;;;;;;21.32;44.71;102012.94;3587796;39;20355;-62
2022/08/29 08:10:27;;;;;;;6.72;2.90;;;;;;;21.32;43.05;102008.34;3586662;39;20048;-63
2022/08/29 08:12:53;;;;;;;8.98;3.13;;;;;;;21.25;43.80;102007.16;3587627;39;20334;-62
2022/08/29 08:15:20;;;;;;;7.53;3.17;;;;;;;21.26;43.95;102003.41;3590493;39;20058;-63
2022/08/29 08:17:46;;;;;;;8.13;3.38;;;;;;;21.32;43.65;101997.41;3588881;39;20566;-63
2022/08/29 08:20:12;;;;;;;7.72;3.53;;;;;;;21.17;44.47;101933.13;3591640;39;20066;-63
2022/08/29 08:22:37;;;;;;;6.38;3.55;;;;;;;21.91;44.63;101995.75;3589479;39;20219;-63
2022/08/29 08:25:05;;;;;;;7.80;2.90;;;;;;;22.16;42.21;101990.81;3590425;39;20104;-64
2022/08/29 08:27:31;;;;;;;6.18;3.15;;;;;;;22.47;42.12;102006.13;3585446;39;20067;-65
2022/08/29 08:29:58;;;;;;;7.18;3.22;;;;;;;22.66;42.59;102001.66;3589845;39;20056;-63
2022/08/29 08:32:24;;;;;;;7.00;3.63;;;;;;;22.67;41.57;101995.16;3587634;39;20082;-64
2022/08/29 08:34:50;;;;;;;8.73;3.45;;;;;;;22.62;40.75;101998.34;3586523;39;20056;-63
2022/08/29 08:37:16;;;;;;;7.53;3.35;;;;;;;22.30;41.77;101971.22;3586630;39;20058;-62
2022/08/29 08:39:42;;;;;;;7.45;3.13;;;;;;;22.36;41.69;102002.63;3590066;39;20055;-63
2022/08/29 08:42:41;;;;;;;7.13;3.33;;;;;;;22.25;42.48;102000.91;3589561;39;20095;-63
2022/08/29 08:45:16;;;;;;;7.18;3.08;;;;;;;22.30;42.63;101998.63;3589242;39;20082;-63
2022/08/29 08:47:47;;;;;;;7.55;3.00;;;;;;;22.34;41.97;101993.72;3589926;39;20051;-63
2022/08/29 08:50:44;;;;;;;7.22;3.38;;;;;;;22.30;41.79;101993.13;3588923;39;20126;-63
2022/08/29 08:53:47;;;;;;;9.13;3.00;;;;;;;21.68;40.78;101901.22;3579194;39;20068;-63
2022/08/29 08:56:34;;;;;;;3.80;2.42;;;;;;;22.28;41.78;101988.81;3590549;39;20063;-63
2022/08/29 08:59:19;;;;;;;4.50;2.95;;;;;;;22.37;42.67;101996.16;3589681;39;20056;-63
2022/08/29 09:02:27;;;;;;;6.13;2.95;;;;;;;22.50;41.32;101998.63;3588555;39;20062;-63
2022/08/29 09:05:26;;;;;;;5.60;3.15;;;;;;;22.57;41.09;101997.88;3578547;39;20098;-62
2022/08/29 09:08:16;;;;;;;7.10;3.72;;;;;;;22.48;41.15;102002.34;3587522;39;20137;-63
2022/08/29 09:11:00;;;;;;;13.05;3.83;;;;;;;22.37;40.99;101994.28;3587273;39;20133;-63
2022/08/29 09:13:55;;;;;;;6.97;3.90;;;;;;;22.20;42.04;102006.84;3589101;39;20484;-63
2022/08/29 09:16:48;;;;;;;11.63;4.75;;;;;;;22.21;41.58;102004.94;3585636;39;20060;-62
2022/08/29 09:19:14;;;;;;;7.57;3.70;;;;;;;22.24;42.54;102008.25;3589388;39;20075;-63
2022/08/29 09:21:52;;;;;;;8.10;4.38;;;;;;;22.23;42.06;102016.59;3587035;39;20271;-63
2022/08/29 09:24:37;;;;;;;9.65;4.00;;;;;;;22.12;42.13;102003.03;3588842;39;20186;-63
2022/08/29 09:27:05;;;;;;;7.72;4.00;;;;;;;22.05;41.99;102004.59;3585880;39;20110;-63
2022/08/29 09:29:31;;;;;;;8.80;4.07;;;;;;;21.92;42.63;102011.19;3590812;39;20047;-63
2022/08/29 09:32:14;;;;;;;6.75;3.67;;;;;;;21.84;42.66;102019.22;3584189;39;20086;-63
2022/08/29 09:34:49;;;;;;;9.43;3.88;;;;;;;21.76;42.77;102022.69;3587713;39;20094;-63
2022/08/29 09:37:25;;;;;;;8.13;3.70;;;;;;;21.73;42.22;102022.97;3586826;39;20078;-63
2022/08/29 09:40:03;;;;;;;7.88;3.50;;;;;;;21.64;43.43;102017.44;3585765;39;20065;-63
2022/08/29 09:43:01;;;;;;;7.05;3.17;;;;;;;21.57;42.85;102000.72;3588692;39;20052;-63
2022/08/29 09:45:27;;;;;;;8.80;3.53;;;;;;;21.64;44.22;102006.50;3588688;39;20067;-63
2022/08/29 09:48:16;;;;;;;8.85;3.55;;;;;;;21.66;43.41;102012.69;3588878;39;20169;-63
2022/08/29 09:50:42;;;;;;;9.27;3.35;;;;;;;21.87;43.26;102002.53;3591094;39;20067;-63
2022/08/29 09:53:08;;;;;;;6.82;3.22;;;;;;;22.12;42.73;102005.75;3589972;39;20058;-63
2022/08/29 09:55:38;;;;;;;5.22;3.40;;;;;;;22.47;43.67;102008.84;3593120;39;20059;-63
2022/08/29 09:58:17;;;;;;;6.18;3.20;;;;;;;22.75;40.20;102003.50;3589561;39;20058;-64
2022/08/29 10:01:03;;;;;;;6.82;3.30;;;;;;;22.63;41.41;102005.53;3588486;39;20064;-63
2022/08/29 10:03:35;;;;;;;8.93;3.58;;;;;;;22.48;41.15;101990.53;3588172;39;20063;-63
2022/08/29 10:06:26;;;;;;;7.68;3.63;;;;;;;22.10;41.21;101975.75;3590807;39;20064;-63
2022/08/29 10:09:24;;;;;;;8.07;3.70;;;;;;;22.05;42.15;102004.59;3588819;39;20064;-63
2022/08/29 10:11:59;;;;;;;6.95;3.60;;;;;;;21.91;42.54;102003.13;3590952;39;20480;-63
2022/08/29 10:14:48;;;;;;;8.10;4.03;;;;;;;21.82;43.52;101993.88;3590083;39;20044;-63
2022/08/29 10:20:16;;;;;;;7.72;4.28;;;;;;;22.51;42.55;102012.16;3587929;39;20121;-64
2022/08/29 10:23:12;;;;;;;5.75;3.03;;;;;;;22.68;42.31;102007.84;3589832;39;20056;-63
2022/08/29 10:25:40;;;;;;;7.38;3.60;;;;;;;22.63;41.63;102012.91;3589366;39;20359;-63
2022/08/29 10:28:33;;;;;;;8.05;3.70;;;;;;;22.54;41.93;102006.41;3591561;39;20102;-63
2022/08/29 10:31:18;;;;;;;7.47;3.45;;;;;;;22.67;43.08;102000.63;3589981;39;20474;-63
2022/08/29 10:34:10;;;;;;;9.90;4.22;;;;;;;23.15;41.81;101996.97;3588626;39;20044;-63
2022/08/29 10:36:47;;;;;;;7.40;3.67;;;;;;;23.57;40.74;101993.81;3590502;39;20048;-63
2022/08/29 10:39:22;;;;;;;7.80;3.35;;;;;;;23.91;39.13;101984.97;3589738;39;20608;-63
2022/08/29 10:42:11;;;;;;;7.18;4.30;;;;;;;24.13;39.66;101990.03;3588073;39;20410;-63
2022/08/29 10:45:12;;;;;;;8.35;4.13;;;;;;;24.16;39.32;101995.22;3591582;39;20275;-63
2022/08/29 10:48:09;;;;;;;11.70;3.80;;;;;;;24.37;39.23;101996.81;3587350;39;20052;-63
2022/08/29 10:50:57;;;;;;;5.78;3.60;;;;;;;24.68;38.97;101989.06;3588289;39;20298;-63
2022/08/29 10:53:44;;;;;;;5.78;3.55;;;;;;;24.94;37.57;101989.94;3589074;39;20066;-63
2022/08/29 10:56:34;;;;;;;9.00;3.97;;;;;;;25.31;38.28;101982.44;3589327;39;20052;-63
2022/08/29 10:59:27;;;;;;;7.72;3.50;;;;;;;25.67;35.31;101975.75;3587507;39;20382;-64
2022/08/29 11:02:36;;;;;;;8.00;3.70;;;;;;;25.82;35.07;101967.75;3588559;39;20056;-64
2022/08/29 11:05:15;;;;;;;7.63;3.47;;;;;;;25.94;35.31;101965.53;3555404;40;20057;-61
2022/08/29 11:07:55;;;;;;;6.60;3.38;;;;;;;26.02;34.73;101961.97;3583302;39;20136;-64
2022/08/29 11:10:39;;;;;;;6.47;3.42;;;;;;;26.23;35.80;101966.97;3587537;39;20059;-62
2022/08/29 11:13:33;;;;;;;4.32;3.10;;;;;;;26.08;35.43;101966.78;3591025;39;20136;-62
2022/08/29 11:16:13;;;;;;;4.90;3.58;;;;;;;26.33;34.63;101964.94;3588257;39;20060;-63
2022/08/29 11:18:59;;;;;;;8.68;3.38;;;;;;;26.60;34.68;101972.03;3581391;39;20056;-63
2022/08/29 11:21:33;;;;;;;8.38;3.40;;;;;;;26.88;33.10;101961.50;3584897;39;20044;-63
2022/08/29 11:24:02;;;;;;;12.90;4.15;;;;;;;27.24;34.36;101959.22;3590599;39;20067;-64
2022/08/29 11:26:42;;;;;;;5.68;3.42;;;;;;;27.45;33.83;101952.25;3590969;39;20059;-64
2022/08/29 11:29:40;;;;;;;5.47;3.80;;;;;;;27.67;31.44;101947.84;3591018;39;20052;-63
2022/08/29 11:32:34;;;;;;;5.68;3.42;;;;;;;27.85;33.08;101937.44;3589643;39;20063;-64
2022/08/29 11:35:34;;;;;;;6.78;3.42;;;;;;;27.98;31.27;101940.44;3587461;39;20398;-63
2022/08/29 11:38:22;;;;;;;5.22;3.50;;;;;;;28.03;32.01;101936.25;3590583;39;20056;-64
2022/08/29 11:41:11;;;;;;;5.55;3.00;;;;;;;27.99;32.23;101933.88;3588476;39;20392;-64
2022/08/29 11:43:46;;;;;;;5.93;3.42;;;;;;;27.79;31.70;101929.00;3591871;39;20052;-64
2022/08/29 11:46:15;;;;;;;3.90;3.17;;;;;;;27.64;33.20;101937.16;3588995;39;20048;-64